sensor_id;sensor_type;location;lat;lon;timestamp;P1;durP1;ratioP1;P2;durP2;ratioP2
2001;SDS011;1003;48.002;7.788;2022-08-19T00:00:32;12.30;;;9.23;;
2001;SDS011;1003;48.002;7.788;2022-08-19T00:02:59;11.30;;;8.37;;
2001;SDS011;1003;48.002;7.788;2022-08-19T00:05:26;13.40;;;9.40;;
2001;SDS011;1003;48.002;7.788;2022-08-19T00:07:53;13.63;;;9.23;;
2001;SDS011;1003;48.002;7.788;2022-08-19T00:10:20;12.33;;;9.13;;
2001;SDS011;1003;48.002;7.788;2022-08-19T00:12:49;10.40;;;8.10;;
2001;SDS011;1003;48.002;7.788;2022-08-19T00:15:18;12.20;;;9.27;;
2001;SDS011;1003;48.002;7.788;2022-08-19T00:17:47;11.93;;;8.17;;
2001;SDS011;1003;48.002;7.788;2022-08-19T00:20:16;11.37;;;8.30;;
2001;SDS011;1003;48.002;7.788;2022-08-19T00:22:46;11.13;;;8.13;;
2001;SDS011;1003;48.002;7.788;2022-08-19T00:25:14;10.97;;;8.73;;
2001;SDS011;1003;48.002;7.788;2022-08-19T00:27:42;11.87;;;8.80;;
2001;SDS011;1003;48.002;7.788;2022-08-19T00:30:09;12.43;;;8.67;;
2001;SDS011;1003;48.002;7.788;2022-08-19T00:32:39;10.57;;;8.23;;
2001;SDS011;1003;48.002;7.788;2022-08-19T00:35:07;10.57;;;8.23;;
2001;SDS011;1003;48.002;7.788;2022-08-19T00:37:36;10.00;;;7.53;;
2001;SDS011;1003;48.002;7.788;2022-08-19T00:40:08;9.70;;;7.07;;
2001;SDS011;1003;48.002;7.788;2022-08-19T00:42:38;10.27;;;7.60;;
2001;SDS011;1003;48.002;7.788;2022-08-19T00:45:09;10.40;;;7.53;;
2001;SDS011;1003;48.002;7.788;2022-08-19T00:47:40;9.53;;;7.67;;
2001;SDS011;1003;48.002;7.788;2022-08-19T00:50:08;10.20;;;7.70;;
2001;SDS011;1003;48.002;7.788;2022-08-19T00:52:37;11.13;;;8.10;;
2001;SDS011;1003;48.002;7.788;2022-08-19T00:55:11;10.30;;;7.30;;
2001;SDS011;1003;48.002;7.788;2022-08-19T00:57:43;10.17;;;7.97;;
2001;SDS011;1003;48.002;7.788;2022-08-19T01:00:19;12.17;;;8.23;;
2001;SDS011;1003;48.002;7.788;2022-08-19T01:02:50;13.10;;;8.37;;
2001;SDS011;1003;48.002;7.788;2022-08-19T01:05:20;16.20;;;11.43;;
2001;SDS011;1003;48.002;7.788;2022-08-19T01:07:54;16.13;;;11.70;;
2001;SDS011;1003;48.002;7.788;2022-08-19T01:10:25;13.43;;;9.87;;
2001;SDS011;1003;48.002;7.788;2022-08-19T01:12:58;16.83;;;10.97;;
2001;SDS011;1003;48.002;7.788;2022-08-19T01:15:29;18.67;;;11.90;;
2001;SDS011;1003;48.002;7.788;2022-08-19T01:18:04;16.27;;;11.80;;
2001;SDS011;1003;48.002;7.788;2022-08-19T01:20:36;15.00;;;11.10;;
2001;SDS011;1003;48.002;7.788;2022-08-19T01:23:07;15.73;;;11.20;;
2001;SDS011;1003;48.002;7.788;2022-08-19T01:25:36;16.70;;;12.43;;
2001;SDS011;1003;48.002;7.788;2022-08-19T01:28:14;17.40;;;12.67;;
2001;SDS011;1003;48.002;7.788;2022-08-19T01:30:43;17.20;;;12.07;;
2001;SDS011;1003;48.002;7.788;2022-08-19T01:33:11;18.30;;;13.13;;
2001;SDS011;1003;48.002;7.788;2022-08-19T01:35:40;16.40;;;12.40;;
2001;SDS011;1003;48.002;7.788;2022-08-19T01:38:18;22.40;;;14.93;;
2001;SDS011;1003;48.002;7.788;2022-08-19T01:40:49;19.00;;;13.90;;
2001;SDS011;1003;48.002;7.788;2022-08-19T01:43:22;17.17;;;12.77;;
2001;SDS011;1003;48.002;7.788;2022-08-19T01:45:49;19.33;;;13.07;;
2001;SDS011;1003;48.002;7.788;2022-08-19T01:48:16;17.03;;;12.33;;
2001;SDS011;1003;48.002;7.788;2022-08-19T01:50:43;17.13;;;11.50;;
2001;SDS011;1003;48.002;7.788;2022-08-19T01:53:12;15.20;;;11.70;;
2001;SDS011;1003;48.002;7.788;2022-08-19T01:55:40;14.50;;;10.53;;
2001;SDS011;1003;48.002;7.788;2022-08-19T01:58:10;12.97;;;9.83;;
2001;SDS011;1003;48.002;7.788;2022-08-19T02:00:43;12.90;;;9.90;;
2001;SDS011;1003;48.002;7.788;2022-08-19T02:03:11;13.90;;;9.90;;
2001;SDS011;1003;48.002;7.788;2022-08-19T02:05:38;11.53;;;8.87;;
2001;SDS011;1003;48.002;7.788;2022-08-19T02:08:07;13.17;;;9.67;;
2001;SDS011;1003;48.002;7.788;2022-08-19T02:10:39;12.97;;;9.20;;
2001;SDS011;1003;48.002;7.788;2022-08-19T02:13:09;11.83;;;9.13;;
2001;SDS011;1003;48.002;7.788;2022-08-19T02:15:38;10.97;;;8.70;;
2001;SDS011;1003;48.002;7.788;2022-08-19T02:18:05;10.90;;;9.20;;
2001;SDS011;1003;48.002;7.788;2022-08-19T02:20:33;13.23;;;9.80;;
2001;SDS011;1003;48.002;7.788;2022-08-19T02:23:00;11.33;;;9.40;;
2001;SDS011;1003;48.002;7.788;2022-08-19T02:25:27;13.93;;;10.07;;
2001;SDS011;1003;48.002;7.788;2022-08-19T02:27:56;14.87;;;10.70;;
2001;SDS011;1003;48.002;7.788;2022-08-19T02:30:23;13.57;;;10.37;;
2001;SDS011;1003;48.002;7.788;2022-08-19T02:32:50;12.70;;;9.73;;
2001;SDS011;1003;48.002;7.788;2022-08-19T02:35:18;13.20;;;10.37;;
2001;SDS011;1003;48.002;7.788;2022-08-19T02:37:46;14.77;;;10.77;;
2001;SDS011;1003;48.002;7.788;2022-08-19T02:40:31;12.70;;;9.53;;
2001;SDS011;1003;48.002;7.788;2022-08-19T02:43:01;13.30;;;9.30;;
2001;SDS011;1003;48.002;7.788;2022-08-19T02:45:31;12.53;;;10.00;;
2001;SDS011;1003;48.002;7.788;2022-08-19T02:47:59;12.53;;;9.53;;
2001;SDS011;1003;48.002;7.788;2022-08-19T02:50:26;13.07;;;10.33;;
2001;SDS011;1003;48.002;7.788;2022-08-19T02:52:53;12.07;;;9.40;;
2001;SDS011;1003;48.002;7.788;2022-08-19T02:55:21;11.13;;;8.33;;
2001;SDS011;1003;48.002;7.788;2022-08-19T02:57:48;16.17;;;11.27;;
2001;SDS011;1003;48.002;7.788;2022-08-19T03:00:17;13.57;;;10.80;;
2001;SDS011;1003;48.002;7.788;2022-08-19T03:02:44;13.63;;;9.97;;
2001;SDS011;1003;48.002;7.788;2022-08-19T03:05:11;13.37;;;10.37;;
2001;SDS011;1003;48.002;7.788;2022-08-19T03:07:38;13.07;;;10.07;;
2001;SDS011;1003;48.002;7.788;2022-08-19T03:10:06;14.03;;;10.60;;
2001;SDS011;1003;48.002;7.788;2022-08-19T03:12:35;13.10;;;10.27;;
2001;SDS011;1003;48.002;7.788;2022-08-19T03:15:04;16.13;;;11.60;;
2001;SDS011;1003;48.002;7.788;2022-08-19T03:17:35;15.30;;;11.13;;
2001;SDS011;1003;48.002;7.788;2022-08-19T03:20:03;14.47;;;10.60;;
2001;SDS011;1003;48.002;7.788;2022-08-19T03:22:31;12.93;;;9.67;;
2001;SDS011;1003;48.002;7.788;2022-08-19T03:24:58;14.67;;;10.73;;
2001;SDS011;1003;48.002;7.788;2022-08-19T03:27:25;16.87;;;12.47;;
2001;SDS011;1003;48.002;7.788;2022-08-19T03:29:53;14.37;;;10.57;;
2001;SDS011;1003;48.002;7.788;2022-08-19T03:32:21;15.73;;;10.83;;
2001;SDS011;1003;48.002;7.788;2022-08-19T03:34:50;16.57;;;10.60;;
2001;SDS011;1003;48.002;7.788;2022-08-19T03:37:17;14.60;;;11.00;;
2001;SDS011;1003;48.002;7.788;2022-08-19T03:39:44;16.47;;;11.37;;
2001;SDS011;1003;48.002;7.788;2022-08-19T03:42:11;14.13;;;10.27;;
2001;SDS011;1003;48.002;7.788;2022-08-19T03:44:39;15.80;;;10.83;;
2001;SDS011;1003;48.002;7.788;2022-08-19T03:47:07;13.47;;;10.77;;
2001;SDS011;1003;48.002;7.788;2022-08-19T03:49:34;14.33;;;10.70;;
2001;SDS011;1003;48.002;7.788;2022-08-19T03:52:03;14.17;;;10.17;;
2001;SDS011;1003;48.002;7.788;2022-08-19T03:54:32;13.27;;;10.33;;
2001;SDS011;1003;48.002;7.788;2022-08-19T03:57:00;14.33;;;10.70;;
2001;SDS011;1003;48.002;7.788;2022-08-19T03:59:28;14.80;;;10.50;;
2001;SDS011;1003;48.002;7.788;2022-08-19T04:01:59;11.70;;;9.57;;
2001;SDS011;1003;48.002;7.788;2022-08-19T04:04:34;13.37;;;10.00;;
2001;SDS011;1003;48.002;7.788;2022-08-19T04:07:03;12.30;;;9.33;;
2001;SDS011;1003;48.002;7.788;2022-08-19T04:09:31;13.80;;;10.53;;
2001;SDS011;1003;48.002;7.788;2022-08-19T04:11:59;16.10;;;11.60;;
2001;SDS011;1003;48.002;7.788;2022-08-19T04:14:27;12.03;;;9.53;;
2001;SDS011;1003;48.002;7.788;2022-08-19T04:16:57;14.70;;;10.33;;
2001;SDS011;1003;48.002;7.788;2022-08-19T04:19:25;14.80;;;11.07;;
2001;SDS011;1003;48.002;7.788;2022-08-19T04:21:55;17.90;;;12.37;;
2001;SDS011;1003;48.002;7.788;2022-08-19T04:24:23;19.27;;;13.40;;
2001;SDS011;1003;48.002;7.788;2022-08-19T04:26:51;16.93;;;12.03;;
2001;SDS011;1003;48.002;7.788;2022-08-19T04:29:19;16.60;;;10.60;;
2001;SDS011;1003;48.002;7.788;2022-08-19T04:31:49;20.10;;;12.73;;
2001;SDS011;1003;48.002;7.788;2022-08-19T04:34:19;20.10;;;12.90;;
2001;SDS011;1003;48.002;7.788;2022-08-19T04:36:49;14.27;;;10.80;;
2001;SDS011;1003;48.002;7.788;2022-08-19T04:39:19;17.03;;;11.80;;
2001;SDS011;1003;48.002;7.788;2022-08-19T04:41:49;17.47;;;12.27;;
2001;SDS011;1003;48.002;7.788;2022-08-19T04:44:34;18.87;;;12.37;;
2001;SDS011;1003;48.002;7.788;2022-08-19T04:47:02;15.83;;;11.70;;
2001;SDS011;1003;48.002;7.788;2022-08-19T04:49:31;14.73;;;10.60;;
2001;SDS011;1003;48.002;7.788;2022-08-19T04:51:58;19.70;;;12.87;;
2001;SDS011;1003;48.002;7.788;2022-08-19T04:54:26;20.53;;;13.00;;
2001;SDS011;1003;48.002;7.788;2022-08-19T04:56:57;16.93;;;11.73;;
2001;SDS011;1003;48.002;7.788;2022-08-19T04:59:26;15.27;;;11.93;;
2001;SDS011;1003;48.002;7.788;2022-08-19T05:01:53;15.93;;;12.03;;
2001;SDS011;1003;48.002;7.788;2022-08-19T05:04:20;18.63;;;12.23;;
2001;SDS011;1003;48.002;7.788;2022-08-19T05:06:48;18.93;;;12.57;;
2001;SDS011;1003;48.002;7.788;2022-08-19T05:09:15;17.07;;;12.23;;
2001;SDS011;1003;48.002;7.788;2022-08-19T05:11:43;13.43;;;10.43;;
2001;SDS011;1003;48.002;7.788;2022-08-19T05:14:12;13.67;;;10.67;;
2001;SDS011;1003;48.002;7.788;2022-08-19T05:16:39;15.00;;;11.33;;
2001;SDS011;1003;48.002;7.788;2022-08-19T05:19:10;14.60;;;11.07;;
2001;SDS011;1003;48.002;7.788;2022-08-19T05:21:54;14.83;;;11.10;;
2001;SDS011;1003;48.002;7.788;2022-08-19T05:24:40;12.83;;;10.10;;
2001;SDS011;1003;48.002;7.788;2022-08-19T05:27:08;12.73;;;9.63;;
2001;SDS011;1003;48.002;7.788;2022-08-19T05:29:36;14.90;;;11.03;;
2001;SDS011;1003;48.002;7.788;2022-08-19T05:32:04;15.87;;;11.63;;
2001;SDS011;1003;48.002;7.788;2022-08-19T05:34:33;19.17;;;12.87;;
2001;SDS011;1003;48.002;7.788;2022-08-19T05:37:03;16.40;;;11.63;;
2001;SDS011;1003;48.002;7.788;2022-08-19T05:39:33;15.20;;;10.47;;
2001;SDS011;1003;48.002;7.788;2022-08-19T05:42:04;14.03;;;10.63;;
2001;SDS011;1003;48.002;7.788;2022-08-19T05:44:37;13.93;;;10.37;;
2001;SDS011;1003;48.002;7.788;2022-08-19T05:47:09;12.03;;;9.23;;
2001;SDS011;1003;48.002;7.788;2022-08-19T05:49:39;13.10;;;9.40;;
2001;SDS011;1003;48.002;7.788;2022-08-19T05:52:09;16.87;;;10.83;;
2001;SDS011;1003;48.002;7.788;2022-08-19T05:54:40;13.70;;;10.43;;
2001;SDS011;1003;48.002;7.788;2022-08-19T05:57:08;12.23;;;9.60;;
2001;SDS011;1003;48.002;7.788;2022-08-19T05:59:36;11.13;;;8.43;;
2001;SDS011;1003;48.002;7.788;2022-08-19T06:02:06;10.37;;;8.53;;
2001;SDS011;1003;48.002;7.788;2022-08-19T06:04:35;9.47;;;7.80;;
2001;SDS011;1003;48.002;7.788;2022-08-19T06:07:02;10.97;;;8.13;;
2001;SDS011;1003;48.002;7.788;2022-08-19T06:09:30;10.27;;;8.07;;
2001;SDS011;1003;48.002;7.788;2022-08-19T06:11:58;13.27;;;9.10;;
2001;SDS011;1003;48.002;7.788;2022-08-19T06:14:30;12.03;;;9.53;;
2001;SDS011;1003;48.002;7.788;2022-08-19T06:17:01;12.90;;;9.67;;
2001;SDS011;1003;48.002;7.788;2022-08-19T06:19:30;12.97;;;9.07;;
2001;SDS011;1003;48.002;7.788;2022-08-19T06:21:59;9.70;;;7.93;;
2001;SDS011;1003;48.002;7.788;2022-08-19T06:24:28;11.77;;;8.90;;
2001;SDS011;1003;48.002;7.788;2022-08-19T06:26:57;9.87;;;7.80;;
2001;SDS011;1003;48.002;7.788;2022-08-19T06:29:26;11.00;;;8.40;;
2001;SDS011;1003;48.002;7.788;2022-08-19T06:31:56;10.97;;;8.63;;
2001;SDS011;1003;48.002;7.788;2022-08-19T06:34:28;10.10;;;8.23;;
2001;SDS011;1003;48.002;7.788;2022-08-19T06:36:59;9.60;;;7.17;;
2001;SDS011;1003;48.002;7.788;2022-08-19T06:39:29;14.30;;;9.30;;
2001;SDS011;1003;48.002;7.788;2022-08-19T06:42:00;10.80;;;8.60;;
2001;SDS011;1003;48.002;7.788;2022-08-19T06:44:31;11.33;;;8.47;;
2001;SDS011;1003;48.002;7.788;2022-08-19T06:47:02;10.07;;;7.47;;
2001;SDS011;1003;48.002;7.788;2022-08-19T06:49:33;10.20;;;8.47;;
2001;SDS011;1003;48.002;7.788;2022-08-19T06:52:02;10.63;;;8.20;;
2001;SDS011;1003;48.002;7.788;2022-08-19T06:54:31;9.00;;;7.40;;
2001;SDS011;1003;48.002;7.788;2022-08-19T06:57:01;9.37;;;7.80;;
2001;SDS011;1003;48.002;7.788;2022-08-19T06:59:30;9.17;;;7.60;;
2001;SDS011;1003;48.002;7.788;2022-08-19T07:02:00;10.40;;;8.50;;
2001;SDS011;1003;48.002;7.788;2022-08-19T07:04:31;7.80;;;6.80;;
2001;SDS011;1003;48.002;7.788;2022-08-19T07:07:04;9.73;;;8.03;;
2001;SDS011;1003;48.002;7.788;2022-08-19T07:09:34;10.93;;;8.70;;
2001;SDS011;1003;48.002;7.788;2022-08-19T07:12:03;11.63;;;8.50;;
2001;SDS011;1003;48.002;7.788;2022-08-19T07:14:35;9.33;;;7.97;;
2001;SDS011;1003;48.002;7.788;2022-08-19T07:17:04;8.50;;;7.57;;
2001;SDS011;1003;48.002;7.788;2022-08-19T07:19:37;9.53;;;6.90;;
2001;SDS011;1003;48.002;7.788;2022-08-19T07:22:06;8.77;;;6.77;;
2001;SDS011;1003;48.002;7.788;2022-08-19T07:24:35;9.33;;;7.50;;
2001;SDS011;1003;48.002;7.788;2022-08-19T07:27:04;10.53;;;6.90;;
2001;SDS011;1003;48.002;7.788;2022-08-19T07:29:33;10.20;;;8.07;;
2001;SDS011;1003;48.002;7.788;2022-08-19T07:32:02;8.13;;;6.43;;
2001;SDS011;1003;48.002;7.788;2022-08-19T07:34:31;6.77;;;6.03;;
2001;SDS011;1003;48.002;7.788;2022-08-19T07:37:03;7.63;;;6.70;;
2001;SDS011;1003;48.002;7.788;2022-08-19T07:39:31;8.80;;;6.47;;
2001;SDS011;1003;48.002;7.788;2022-08-19T07:42:03;8.47;;;6.93;;
2001;SDS011;1003;48.002;7.788;2022-08-19T07:44:34;8.57;;;6.50;;
2001;SDS011;1003;48.002;7.788;2022-08-19T07:47:02;9.37;;;7.60;;
2001;SDS011;1003;48.002;7.788;2022-08-19T07:49:32;8.47;;;7.13;;
2001;SDS011;1003;48.002;7.788;2022-08-19T07:52:00;9.17;;;7.40;;
2001;SDS011;1003;48.002;7.788;2022-08-19T07:54:33;7.80;;;6.83;;
2001;SDS011;1003;48.002;7.788;2022-08-19T07:57:03;9.03;;;7.17;;
2001;SDS011;1003;48.002;7.788;2022-08-19T07:59:31;8.80;;;7.50;;
2001;SDS011;1003;48.002;7.788;2022-08-19T08:01:59;8.30;;;7.27;;
2001;SDS011;1003;48.002;7.788;2022-08-19T08:04:28;10.07;;;7.13;;
2001;SDS011;1003;48.002;7.788;2022-08-19T08:07:16;10.57;;;7.73;;
2001;SDS011;1003;48.002;7.788;2022-08-19T08:10:01;7.10;;;6.40;;
2001;SDS011;1003;48.002;7.788;2022-08-19T08:12:31;7.93;;;6.33;;
2001;SDS011;1003;48.002;7.788;2022-08-19T08:15:07;7.60;;;6.33;;
2001;SDS011;1003;48.002;7.788;2022-08-19T08:17:41;7.13;;;6.37;;
2001;SDS011;1003;48.002;7.788;2022-08-19T08:20:09;7.53;;;6.47;;
2001;SDS011;1003;48.002;7.788;2022-08-19T08:22:42;10.77;;;8.37;;
2001;SDS011;1003;48.002;7.788;2022-08-19T08:25:27;10.60;;;7.83;;
2001;SDS011;1003;48.002;7.788;2022-08-19T08:27:56;7.80;;;7.00;;
2001;SDS011;1003;48.002;7.788;2022-08-19T08:30:25;10.00;;;8.03;;
2001;SDS011;1003;48.002;7.788;2022-08-19T08:32:55;8.77;;;7.20;;
2001;SDS011;1003;48.002;7.788;2022-08-19T08:35:23;13.00;;;9.30;;
2001;SDS011;1003;48.002;7.788;2022-08-19T08:37:52;8.70;;;7.80;;
2001;SDS011;1003;48.002;7.788;2022-08-19T08:40:22;8.63;;;7.73;;
2001;SDS011;1003;48.002;7.788;2022-08-19T08:42:57;10.77;;;8.77;;
2001;SDS011;1003;48.002;7.788;2022-08-19T08:45:33;11.77;;;8.77;;
2001;SDS011;1003;48.002;7.788;2022-08-19T08:48:12;7.83;;;7.03;;
2001;SDS011;1003;48.002;7.788;2022-08-19T08:50:46;10.03;;;8.67;;
2001;SDS011;1003;48.002;7.788;2022-08-19T08:53:18;12.17;;;9.00;;
2001;SDS011;1003;48.002;7.788;2022-08-19T08:55:47;13.60;;;9.37;;
2001;SDS011;1003;48.002;7.788;2022-08-19T08:58:16;13.07;;;9.83;;
2001;SDS011;1003;48.002;7.788;2022-08-19T09:00:53;9.23;;;7.87;;
2001;SDS011;1003;48.002;7.788;2022-08-19T09:03:21;10.03;;;8.53;;
2001;SDS011;1003;48.002;7.788;2022-08-19T09:05:55;11.77;;;8.93;;
2001;SDS011;1003;48.002;7.788;2022-08-19T09:08:33;11.27;;;9.50;;
2001;SDS011;1003;48.002;7.788;2022-08-19T09:11:15;10.63;;;8.47;;
2001;SDS011;1003;48.002;7.788;2022-08-19T09:14:04;12.80;;;9.67;;
2001;SDS011;1003;48.002;7.788;2022-08-19T09:16:37;11.50;;;9.67;;
2001;SDS011;1003;48.002;7.788;2022-08-19T09:19:06;13.13;;;9.87;;
2001;SDS011;1003;48.002;7.788;2022-08-19T09:21:36;10.73;;;8.50;;
2001;SDS011;1003;48.002;7.788;2022-08-19T09:24:06;11.00;;;8.40;;
2001;SDS011;1003;48.002;7.788;2022-08-19T09:26:33;13.73;;;9.57;;
2001;SDS011;1003;48.002;7.788;2022-08-19T09:29:01;14.23;;;10.53;;
2001;SDS011;1003;48.002;7.788;2022-08-19T09:31:30;13.47;;;9.97;;
2001;SDS011;1003;48.002;7.788;2022-08-19T09:33:58;14.93;;;11.40;;
2001;SDS011;1003;48.002;7.788;2022-08-19T09:36:28;14.77;;;11.67;;
2001;SDS011;1003;48.002;7.788;2022-08-19T09:38:57;12.77;;;9.93;;
2001;SDS011;1003;48.002;7.788;2022-08-19T09:41:27;12.80;;;9.90;;
2001;SDS011;1003;48.002;7.788;2022-08-19T09:43:55;17.27;;;12.27;;
2001;SDS011;1003;48.002;7.788;2022-08-19T09:46:25;12.53;;;10.37;;
2001;SDS011;1003;48.002;7.788;2022-08-19T09:48:59;15.67;;;10.17;;
2001;SDS011;1003;48.002;7.788;2022-08-19T09:51:27;9.97;;;8.93;;
2001;SDS011;1003;48.002;7.788;2022-08-19T09:53:55;12.57;;;10.13;;
2001;SDS011;1003;48.002;7.788;2022-08-19T09:56:29;14.33;;;10.20;;
2001;SDS011;1003;48.002;7.788;2022-08-19T09:58:57;14.73;;;11.03;;
2001;SDS011;1003;48.002;7.788;2022-08-19T10:01:25;11.13;;;9.87;;
2001;SDS011;1003;48.002;7.788;2022-08-19T10:03:56;12.17;;;10.70;;
2001;SDS011;1003;48.002;7.788;2022-08-19T10:06:26;14.63;;;11.80;;
2001;SDS011;1003;48.002;7.788;2022-08-19T10:08:58;10.47;;;8.80;;
2001;SDS011;1003;48.002;7.788;2022-08-19T10:11:26;11.90;;;10.53;;
2001;SDS011;1003;48.002;7.788;2022-08-19T10:13:55;13.40;;;8.90;;
2001;SDS011;1003;48.002;7.788;2022-08-19T10:16:23;11.63;;;9.53;;
2001;SDS011;1003;48.002;7.788;2022-08-19T10:18:50;14.10;;;11.10;;
2001;SDS011;1003;48.002;7.788;2022-08-19T10:21:20;10.73;;;9.27;;
2001;SDS011;1003;48.002;7.788;2022-08-19T10:23:51;14.67;;;11.23;;
2001;SDS011;1003;48.002;7.788;2022-08-19T10:26:23;11.80;;;9.27;;
2001;SDS011;1003;48.002;7.788;2022-08-19T10:28:52;10.93;;;9.77;;
2001;SDS011;1003;48.002;7.788;2022-08-19T10:31:23;11.53;;;9.33;;
2001;SDS011;1003;48.002;7.788;2022-08-19T10:33:55;14.90;;;10.60;;
2001;SDS011;1003;48.002;7.788;2022-08-19T10:36:24;13.57;;;8.87;;
2001;SDS011;1003;48.002;7.788;2022-08-19T10:38:54;12.93;;;10.43;;
2001;SDS011;1003;48.002;7.788;2022-08-19T10:41:25;12.53;;;10.20;;
2001;SDS011;1003;48.002;7.788;2022-08-19T10:43:57;12.97;;;11.10;;
2001;SDS011;1003;48.002;7.788;2022-08-19T10:46:27;13.43;;;10.37;;
2001;SDS011;1003;48.002;7.788;2022-08-19T10:48:57;13.10;;;9.40;;
2001;SDS011;1003;48.002;7.788;2022-08-19T10:51:26;10.53;;;9.10;;
2001;SDS011;1003;48.002;7.788;2022-08-19T10:54:12;11.50;;;9.73;;
2001;SDS011;1003;48.002;7.788;2022-08-19T10:56:39;16.07;;;12.40;;
2001;SDS011;1003;48.002;7.788;2022-08-19T10:59:19;12.47;;;9.73;;
2001;SDS011;1003;48.002;7.788;2022-08-19T11:01:49;10.87;;;9.47;;
2001;SDS011;1003;48.002;7.788;2022-08-19T11:04:18;11.33;;;9.77;;
2001;SDS011;1003;48.002;7.788;2022-08-19T11:06:47;12.37;;;9.87;;
2001;SDS011;1003;48.002;7.788;2022-08-19T11:09:15;16.07;;;13.07;;
2001;SDS011;1003;48.002;7.788;2022-08-19T11:11:49;13.97;;;11.50;;
2001;SDS011;1003;48.002;7.788;2022-08-19T11:14:19;11.03;;;9.03;;
2001;SDS011;1003;48.002;7.788;2022-08-19T11:16:49;13.60;;;10.17;;
2001;SDS011;1003;48.002;7.788;2022-08-19T11:19:18;11.47;;;10.23;;
2001;SDS011;1003;48.002;7.788;2022-08-19T11:21:47;11.50;;;9.53;;
2001;SDS011;1003;48.002;7.788;2022-08-19T11:24:15;12.47;;;10.60;;
2001;SDS011;1003;48.002;7.788;2022-08-19T11:26:48;10.40;;;9.30;;
2001;SDS011;1003;48.002;7.788;2022-08-19T11:29:18;11.27;;;10.07;;
2001;SDS011;1003;48.002;7.788;2022-08-19T11:31:51;14.67;;;11.73;;
2001;SDS011;1003;48.002;7.788;2022-08-19T11:34:20;12.97;;;10.63;;
2001;SDS011;1003;48.002;7.788;2022-08-19T11:36:52;10.10;;;8.97;;
2001;SDS011;1003;48.002;7.788;2022-08-19T11:39:20;11.17;;;9.70;;
2001;SDS011;1003;48.002;7.788;2022-08-19T11:41:48;10.67;;;9.57;;
2001;SDS011;1003;48.002;7.788;2022-08-19T11:44:17;12.73;;;10.17;;
2001;SDS011;1003;48.002;7.788;2022-08-19T11:46:46;13.50;;;10.53;;
2001;SDS011;1003;48.002;7.788;2022-08-19T11:49:14;10.50;;;9.40;;
2001;SDS011;1003;48.002;7.788;2022-08-19T11:51:45;14.90;;;11.13;;
2001;SDS011;1003;48.002;7.788;2022-08-19T11:54:14;14.10;;;12.17;;
2001;SDS011;1003;48.002;7.788;2022-08-19T11:56:43;14.83;;;11.70;;
2001;SDS011;1003;48.002;7.788;2022-08-19T11:59:12;10.20;;;8.67;;
2001;SDS011;1003;48.002;7.788;2022-08-19T12:01:41;12.77;;;10.97;;
2001;SDS011;1003;48.002;7.788;2022-08-19T12:04:10;15.07;;;11.33;;
2001;SDS011;1003;48.002;7.788;2022-08-19T12:06:37;9.80;;;8.60;;
2001;SDS011;1003;48.002;7.788;2022-08-19T12:09:07;13.87;;;11.73;;
2001;SDS011;1003;48.002;7.788;2022-08-19T12:11:36;13.20;;;11.10;;
2001;SDS011;1003;48.002;7.788;2022-08-19T12:14:05;10.47;;;9.27;;
2001;SDS011;1003;48.002;7.788;2022-08-19T12:16:39;14.43;;;11.17;;
2001;SDS011;1003;48.002;7.788;2022-08-19T12:19:07;10.20;;;8.73;;
2001;SDS011;1003;48.002;7.788;2022-08-19T12:21:35;9.93;;;8.73;;
2001;SDS011;1003;48.002;7.788;2022-08-19T12:24:03;14.70;;;11.70;;
2001;SDS011;1003;48.002;7.788;2022-08-19T12:26:31;11.60;;;9.47;;
2001;SDS011;1003;48.002;7.788;2022-08-19T12:28:59;9.03;;;8.13;;
2001;SDS011;1003;48.002;7.788;2022-08-19T12:31:26;11.50;;;9.97;;
2001;SDS011;1003;48.002;7.788;2022-08-19T12:33:54;8.83;;;7.90;;
2001;SDS011;1003;48.002;7.788;2022-08-19T12:36:22;11.87;;;9.83;;
2001;SDS011;1003;48.002;7.788;2022-08-19T12:38:51;10.63;;;9.20;;
2001;SDS011;1003;48.002;7.788;2022-08-19T12:41:19;10.90;;;8.88;;
2001;SDS011;1003;48.002;7.788;2022-08-19T12:43:47;12.17;;;10.60;;
2001;SDS011;1003;48.002;7.788;2022-08-19T12:46:16;14.37;;;11.93;;
2001;SDS011;1003;48.002;7.788;2022-08-19T12:48:44;15.70;;;12.77;;
2001;SDS011;1003;48.002;7.788;2022-08-19T12:51:13;13.23;;;10.20;;
2001;SDS011;1003;48.002;7.788;2022-08-19T12:53:44;11.93;;;9.40;;
2001;SDS011;1003;48.002;7.788;2022-08-19T12:56:14;12.00;;;9.57;;
2001;SDS011;1003;48.002;7.788;2022-08-19T12:58:42;12.57;;;10.93;;
2001;SDS011;1003;48.002;7.788;2022-08-19T13:01:11;11.80;;;10.57;;
2001;SDS011;1003;48.002;7.788;2022-08-19T13:03:41;15.57;;;10.60;;
2001;SDS011;1003;48.002;7.788;2022-08-19T13:06:11;10.93;;;9.83;;
2001;SDS011;1003;48.002;7.788;2022-08-19T13:08:38;9.87;;;8.20;;
2001;SDS011;1003;48.002;7.788;2022-08-19T13:11:11;10.27;;;9.13;;
2001;SDS011;1003;48.002;7.788;2022-08-19T13:13:42;12.00;;;9.90;;
2001;SDS011;1003;48.002;7.788;2022-08-19T13:16:12;11.13;;;9.47;;
2001;SDS011;1003;48.002;7.788;2022-08-19T13:18:41;12.63;;;11.20;;
2001;SDS011;1003;48.002;7.788;2022-08-19T13:21:12;11.77;;;10.07;;
2001;SDS011;1003;48.002;7.788;2022-08-19T13:23:40;11.53;;;10.33;;
2001;SDS011;1003;48.002;7.788;2022-08-19T13:26:09;11.87;;;10.53;;
2001;SDS011;1003;48.002;7.788;2022-08-19T13:28:40;10.33;;;9.17;;
2001;SDS011;1003;48.002;7.788;2022-08-19T13:31:27;11.00;;;9.90;;
2001;SDS011;1003;48.002;7.788;2022-08-19T13:34:14;8.90;;;7.97;;
2001;SDS011;1003;48.002;7.788;2022-08-19T13:36:44;9.03;;;8.20;;
2001;SDS011;1003;48.002;7.788;2022-08-19T13:39:12;8.60;;;7.77;;
2001;SDS011;1003;48.002;7.788;2022-08-19T13:41:43;10.47;;;8.70;;
2001;SDS011;1003;48.002;7.788;2022-08-19T13:44:14;9.13;;;8.10;;
2001;SDS011;1003;48.002;7.788;2022-08-19T13:46:44;9.07;;;7.67;;
2001;SDS011;1003;48.002;7.788;2022-08-19T13:49:15;8.90;;;8.00;;
2001;SDS011;1003;48.002;7.788;2022-08-19T13:51:45;9.43;;;8.53;;
2001;SDS011;1003;48.002;7.788;2022-08-19T13:54:13;8.87;;;7.97;;
2001;SDS011;1003;48.002;7.788;2022-08-19T13:56:43;9.60;;;8.63;;
2001;SDS011;1003;48.002;7.788;2022-08-19T13:59:15;10.33;;;9.33;;
2001;SDS011;1003;48.002;7.788;2022-08-19T14:01:44;10.10;;;9.10;;
2001;SDS011;1003;48.002;7.788;2022-08-19T14:04:12;9.03;;;8.23;;
2001;SDS011;1003;48.002;7.788;2022-08-19T14:06:40;8.87;;;7.97;;
2001;SDS011;1003;48.002;7.788;2022-08-19T14:09:08;9.33;;;8.33;;
2001;SDS011;1003;48.002;7.788;2022-08-19T14:11:36;8.93;;;8.13;;
2001;SDS011;1003;48.002;7.788;2022-08-19T14:14:04;9.90;;;8.90;;
2001;SDS011;1003;48.002;7.788;2022-08-19T14:16:34;8.33;;;7.53;;
2001;SDS011;1003;48.002;7.788;2022-08-19T14:19:02;9.27;;;8.37;;
2001;SDS011;1003;48.002;7.788;2022-08-19T14:21:32;9.53;;;8.63;;
2001;SDS011;1003;48.002;7.788;2022-08-19T14:24:01;9.13;;;8.10;;
2001;SDS011;1003;48.002;7.788;2022-08-19T14:26:29;11.00;;;8.70;;
2001;SDS011;1003;48.002;7.788;2022-08-19T14:28:57;11.40;;;10.20;;
2001;SDS011;1003;48.002;7.788;2022-08-19T14:31:26;15.17;;;11.27;;
2001;SDS011;1003;48.002;7.788;2022-08-19T14:33:56;15.00;;;12.13;;
2001;SDS011;1003;48.002;7.788;2022-08-19T14:36:24;14.90;;;11.50;;
2001;SDS011;1003;48.002;7.788;2022-08-19T14:38:52;13.87;;;11.47;;
2001;SDS011;1003;48.002;7.788;2022-08-19T14:41:24;15.17;;;12.37;;
2001;SDS011;1003;48.002;7.788;2022-08-19T14:43:52;13.87;;;11.93;;
2001;SDS011;1003;48.002;7.788;2022-08-19T14:46:22;14.13;;;11.90;;
2001;SDS011;1003;48.002;7.788;2022-08-19T14:48:52;14.77;;;12.27;;
2001;SDS011;1003;48.002;7.788;2022-08-19T14:51:22;11.50;;;10.13;;
2001;SDS011;1003;48.002;7.788;2022-08-19T14:53:51;14.50;;;11.17;;
2001;SDS011;1003;48.002;7.788;2022-08-19T14:56:20;13.07;;;11.57;;
2001;SDS011;1003;48.002;7.788;2022-08-19T14:58:50;20.33;;;14.67;;
2001;SDS011;1003;48.002;7.788;2022-08-19T15:01:18;14.20;;;11.87;;
2001;SDS011;1003;48.002;7.788;2022-08-19T15:03:47;14.70;;;13.10;;
2001;SDS011;1003;48.002;7.788;2022-08-19T15:06:18;16.07;;;13.37;;
2001;SDS011;1003;48.002;7.788;2022-08-19T15:08:48;12.53;;;10.80;;
2001;SDS011;1003;48.002;7.788;2022-08-19T15:11:17;14.50;;;11.77;;
2001;SDS011;1003;48.002;7.788;2022-08-19T15:13:49;16.70;;;12.83;;